sensor_id;sensor_type;location;lat;lon;timestamp;pressure;altitude;pressure_sealevel;temperature;humidity
18850;BME280;4989;48.772;9.154;2022-11-18T00:02:15;96205.47;;;8.57;100.00
18850;BME280;4989;48.772;9.154;2022-11-18T00:07:17;96212.34;;;8.77;100.00
18850;BME280;4989;48.772;9.154;2022-11-18T00:12:21;96206.19;;;8.76;100.00
18850;BME280;4989;48.772;9.154;2022-11-18T00:17:46;96194.63;;;8.66;100.00
18850;BME280;4989;48.772;9.154;2022-11-18T00:22:54;96194.31;;;8.64;100.00
18850;BME280;4989;48.772;9.154;2022-11-18T00:27:57;96198.22;;;8.82;100.00
18850;BME280;4989;48.772;9.154;2022-11-18T00:32:59;96208.56;;;8.92;100.00
18850;BME280;4989;48.772;9.154;2022-11-18T00:38:02;96205.75;;;8.87;100.00
18850;BME280;4989;48.772;9.154;2022-11-18T00:43:04;96211.75;;;8.73;100.00
18850;BME280;4989;48.772;9.154;2022-11-18T00:48:06;96203.66;;;8.54;100.00
18850;BME280;4989;48.772;9.154;2022-11-18T00:53:09;96199.44;;;8.71;100.00
18850;BME280;4989;48.772;9.154;2022-11-18T00:58:12;96200.94;;;8.73;100.00
18850;BME280;4989;48.772;9.154;2022-11-18T01:03:16;96212.09;;;8.65;100.00
18850;BME280;4989;48.772;9.154;2022-11-18T01:08:19;96203.94;;;8.75;100.00
18850;BME280;4989;48.772;9.154;2022-11-18T01:13:22;96208.44;;;8.59;100.00
18850;BME280;4989;48.772;9.154;2022-11-18T01:18:30;96207.84;;;8.64;100.00
18850;BME280;4989;48.772;9.154;2022-11-18T01:23:33;96212.09;;;8.65;100.00
18850;BME280;4989;48.772;9.154;2022-11-18T01:28:35;96203.94;;;8.75;100.00
18850;BME280;4989;48.772;9.154;2022-11-18T01:33:38;96208.47;;;8.78;100.00
18850;BME280;4989;48.772;9.154;2022-11-18T01:38:41;96217.00;;;8.85;100.00
18850;BME280;4989;48.772;9.154;2022-11-18T01:49:08;96234.63;;;8.81;100.00
18850;BME280;4989;48.772;9.154;2022-11-18T01:54:19;96228.91;;;8.69;100.00
18850;BME280;4989;48.772;9.154;2022-11-18T01:59:26;96240.34;;;8.64;100.00
18850;BME280;4989;48.772;9.154;2022-11-18T02:04:32;96242.31;;;8.64;100.00
18850;BME280;4989;48.772;9.154;2022-11-18T02:09:38;96244.28;;;8.63;100.00
18850;BME280;4989;48.772;9.154;2022-11-18T02:14:44;96251.66;;;8.63;100.00
18850;BME280;4989;48.772;9.154;2022-11-18T02:30:21;96263.06;;;8.67;100.00
18850;BME280;4989;48.772;9.154;2022-11-18T02:35:39;96261.72;;;8.62;100.00
18850;BME280;4989;48.772;9.154;2022-11-18T02:40:44;96267.00;;;8.66;100.00
18850;BME280;4989;48.772;9.154;2022-11-18T02:45:51;96267.44;;;8.64;100.00
18850;BME280;4989;48.772;9.154;2022-11-18T02:50:55;96264.72;;;8.64;100.00
18850;BME280;4989;48.772;9.154;2022-11-18T02:55:59;96267.75;;;8.66;100.00
18850;BME280;4989;48.772;9.154;2022-11-18T03:01:03;96276.44;;;8.70;100.00
18850;BME280;4989;48.772;9.154;2022-11-18T03:06:18;96284.59;;;8.70;100.00
18850;BME280;4989;48.772;9.154;2022-11-18T03:11:33;96305.06;;;8.81;100.00
18850;BME280;4989;48.772;9.154;2022-11-18T03:22:12;96318.00;;;8.77;100.00
18850;BME280;4989;48.772;9.154;2022-11-18T03:27:45;96320.09;;;8.73;100.00
18850;BME280;4989;48.772;9.154;2022-11-18T03:33:01;96324.03;;;8.71;100.00
18850;BME280;4989;48.772;9.154;2022-11-18T03:38:13;96338.47;;;8.68;100.00
18850;BME280;4989;48.772;9.154;2022-11-18T03:43:20;96356.63;;;8.68;100.00
18850;BME280;4989;48.772;9.154;2022-11-18T03:48:30;96357.69;;;8.70;100.00
18850;BME280;4989;48.772;9.154;2022-11-18T03:53:43;96366.44;;;8.65;100.00
18850;BME280;4989;48.772;9.154;2022-11-18T03:58:53;96363.41;;;8.63;100.00
18850;BME280;4989;48.772;9.154;2022-11-18T04:03:58;96368.53;;;8.61;100.00
18850;BME280;4989;48.772;9.154;2022-11-18T04:09:05;96375.47;;;8.62;100.00
18850;BME280;4989;48.772;9.154;2022-11-18T04:14:12;96378.59;;;8.61;100.00
18850;BME280;4989;48.772;9.154;2022-11-18T04:19:15;96388.06;;;8.56;100.00
18850;BME280;4989;48.772;9.154;2022-11-18T04:24:17;96387.22;;;8.68;100.00
18850;BME280;4989;48.772;9.154;2022-11-18T04:29:20;96403.13;;;8.66;100.00
18850;BME280;4989;48.772;9.154;2022-11-18T04:34:22;96413.50;;;8.59;100.00
18850;BME280;4989;48.772;9.154;2022-11-18T04:39:26;96411.22;;;8.48;100.00
18850;BME280;4989;48.772;9.154;2022-11-18T04:44:30;96402.72;;;8.37;100.00
18850;BME280;4989;48.772;9.154;2022-11-18T04:49:33;96402.59;;;8.40;100.00
18850;BME280;4989;48.772;9.154;2022-11-18T04:54:36;96411.94;;;8.39;100.00
18850;BME280;4989;48.772;9.154;2022-11-18T04:59:39;96414.56;;;8.30;100.00
18850;BME280;4989;48.772;9.154;2022-11-18T05:04:41;96421.63;;;8.27;100.00
18850;BME280;4989;48.772;9.154;2022-11-18T05:09:44;96422.34;;;8.19;100.00
18850;BME280;4989;48.772;9.154;2022-11-18T05:14:47;96423.53;;;8.18;100.00
18850;BME280;4989;48.772;9.154;2022-11-18T05:19:52;96437.78;;;8.09;100.00
18850;BME280;4989;48.772;9.154;2022-11-18T05:24:54;96436.69;;;8.07;100.00
18850;BME280;4989;48.772;9.154;2022-11-18T05:29:57;96438.94;;;7.99;100.00
18850;BME280;4989;48.772;9.154;2022-11-18T05:34:59;96447.19;;;8.04;100.00
18850;BME280;4989;48.772;9.154;2022-11-18T05:40:02;96450.03;;;8.01;100.00
18850;BME280;4989;48.772;9.154;2022-11-18T05:45:05;96451.25;;;8.00;100.00
18850;BME280;4989;48.772;9.154;2022-11-18T05:50:08;96461.44;;;7.96;100.00
18850;BME280;4989;48.772;9.154;2022-11-18T05:55:16;96460.19;;;7.88;100.00
18850;BME280;4989;48.772;9.154;2022-11-18T06:00:19;96462.25;;;7.84;100.00
18850;BME280;4989;48.772;9.154;2022-11-18T06:05:22;96462.56;;;7.86;100.00
18850;BME280;4989;48.772;9.154;2022-11-18T06:10:29;96487.66;;;7.86;100.00
18850;BME280;4989;48.772;9.154;2022-11-18T06:15:39;96481.81;;;7.88;100.00
18850;BME280;4989;48.772;9.154;2022-11-18T06:20:43;96491.63;;;7.94;100.00
18850;BME280;4989;48.772;9.154;2022-11-18T06:25:46;96481.94;;;8.06;100.00
18850;BME280;4989;48.772;9.154;2022-11-18T06:30:51;96495.16;;;8.04;100.00
18850;BME280;4989;48.772;9.154;2022-11-18T06:35:54;96503.59;;;8.06;100.00
18850;BME280;4989;48.772;9.154;2022-11-18T06:41:00;96498.13;;;7.97;100.00
18850;BME280;4989;48.772;9.154;2022-11-18T06:46:04;96511.78;;;7.93;100.00
18850;BME280;4989;48.772;9.154;2022-11-18T06:51:26;96518.50;;;7.89;100.00
18850;BME280;4989;48.772;9.154;2022-11-18T06:56:29;96525.09;;;7.88;100.00
18850;BME280;4989;48.772;9.154;2022-11-18T07:01:35;96531.13;;;7.92;100.00
18850;BME280;4989;48.772;9.154;2022-11-18T07:06:40;96541.72;;;7.99;100.00
18850;BME280;4989;48.772;9.154;2022-11-18T07:11:43;96539.44;;;7.97;100.00
18850;BME280;4989;48.772;9.154;2022-11-18T07:16:46;96550.47;;;8.03;100.00
18850;BME280;4989;48.772;9.154;2022-11-18T07:21:52;96564.00;;;8.03;100.00
18850;BME280;4989;48.772;9.154;2022-11-18T07:26:54;96567.91;;;8.02;100.00
18850;BME280;4989;48.772;9.154;2022-11-18T07:31:57;96572.19;;;8.12;100.00
18850;BME280;4989;48.772;9.154;2022-11-18T07:37:00;96571.56;;;8.08;100.00
18850;BME280;4989;48.772;9.154;2022-11-18T07:42:03;96574.81;;;8.03;100.00
18850;BME280;4989;48.772;9.154;2022-11-18T07:47:05;96581.97;;;7.97;100.00
18850;BME280;4989;48.772;9.154;2022-11-18T07:52:08;96579.97;;;8.10;100.00
18850;BME280;4989;48.772;9.154;2022-11-18T07:57:10;96600.25;;;8.27;100.00
18850;BME280;4989;48.772;9.154;2022-11-18T08:02:13;96605.88;;;8.55;100.00
18850;BME280;4989;48.772;9.154;2022-11-18T08:07:16;96609.03;;;8.76;100.00
18850;BME280;4989;48.772;9.154;2022-11-18T08:12:19;96616.34;;;8.97;100.00
18850;BME280;4989;48.772;9.154;2022-11-18T08:17:22;96632.94;;;8.99;100.00
18850;BME280;4989;48.772;9.154;2022-11-18T08:22:24;96640.66;;;9.10;100.00
18850;BME280;4989;48.772;9.154;2022-11-18T08:27:27;96637.72;;;8.95;100.00
18850;BME280;4989;48.772;9.154;2022-11-18T08:32:29;96649.25;;;8.86;100.00
18850;BME280;4989;48.772;9.154;2022-11-18T08:37:35;96659.72;;;8.75;100.00
18850;BME280;4989;48.772;9.154;2022-11-18T08:42:38;96659.84;;;8.93;100.00
18850;BME280;4989;48.772;9.154;2022-11-18T08:47:41;96656.63;;;9.08;100.00
18850;BME280;4989;48.772;9.154;2022-11-18T08:52:43;96670.22;;;8.95;100.00
18850;BME280;4989;48.772;9.154;2022-11-18T08:57:46;96665.97;;;8.85;100.00
18850;BME280;4989;48.772;9.154;2022-11-18T09:02:49;96674.97;;;8.82;100.00
18850;BME280;4989;48.772;9.154;2022-11-18T09:07:54;96671.63;;;8.78;100.00
18850;BME280;4989;48.772;9.154;2022-11-18T09:12:58;96678.75;;;8.84;100.00
18850;BME280;4989;48.772;9.154;2022-11-18T09:18:21;96686.41;;;8.86;100.00
18850;BME280;4989;48.772;9.154;2022-11-18T09:23:23;96681.06;;;8.73;100.00
18850;BME280;4989;48.772;9.154;2022-11-18T09:28:26;96693.25;;;8.68;100.00
18850;BME280;4989;48.772;9.154;2022-11-18T09:33:29;96689.06;;;8.77;100.00
18850;BME280;4989;48.772;9.154;2022-11-18T09:38:32;96701.72;;;8.80;100.00
18850;BME280;4989;48.772;9.154;2022-11-18T09:49:02;96719.06;;;8.82;100.00
18850;BME280;4989;48.772;9.154;2022-11-18T09:54:29;96709.22;;;8.98;100.00
18850;BME280;4989;48.772;9.154;2022-11-18T09:59:35;96723.22;;;9.18;100.00
18850;BME280;4989;48.772;9.154;2022-11-18T10:04:39;96722.47;;;9.17;100.00
18850;BME280;4989;48.772;9.154;2022-11-18T10:09:42;96725.34;;;9.23;100.00
18850;BME280;4989;48.772;9.154;2022-11-18T10:25:33;96739.94;;;9.48;100.00
18850;BME280;4989;48.772;9.154;2022-11-18T10:30:38;96743.53;;;9.45;100.00
18850;BME280;4989;48.772;9.154;2022-11-18T10:35:41;96743.53;;;9.76;100.00
18850;BME280;4989;48.772;9.154;2022-11-18T10:45:52;96739.94;;;10.28;100.00
18850;BME280;4989;48.772;9.154;2022-11-18T10:50:55;96748.25;;;10.34;100.00
18850;BME280;4989;48.772;9.154;2022-11-18T10:55:59;96741.66;;;10.63;100.00
18850;BME280;4989;48.772;9.154;2022-11-18T11:21:53;96768.66;;;10.48;100.00
18850;BME280;4989;48.772;9.154;2022-11-18T11:27:07;96772.28;;;10.72;100.00
18850;BME280;4989;48.772;9.154;2022-11-18T11:37:57;96762.38;;;11.58;100.00
18850;BME280;4989;48.772;9.154;2022-11-18T11:59:12;96785.56;;;10.70;100.00
18850;BME280;4989;48.772;9.154;2022-11-18T12:14:45;96784.38;;;10.22;100.00
18850;BME280;4989;48.772;9.154;2022-11-18T12:19:50;96788.91;;;10.25;100.00
18850;BME280;4989;48.772;9.154;2022-11-18T12:24:52;96801.84;;;10.02;100.00
18850;BME280;4989;48.772;9.154;2022-11-18T12:29:57;96792.59;;;9.91;100.00
18850;BME280;4989;48.772;9.154;2022-11-18T12:35:22;96804.53;;;10.02;100.00
18850;BME280;4989;48.772;9.154;2022-11-18T12:40:36;96803.25;;;9.54;100.00
18850;BME280;4989;48.772;9.154;2022-11-18T12:55:57;96811.94;;;9.71;100.00
18850;BME280;4989;48.772;9.154;2022-11-18T13:01:05;96804.44;;;10.15;100.00
18850;BME280;4989;48.772;9.154;2022-11-18T13:06:30;96813.34;;;10.16;100.00
18850;BME280;4989;48.772;9.154;2022-11-18T13:11:45;96817.06;;;10.49;100.00
18850;BME280;4989;48.772;9.154;2022-11-18T13:16:50;96811.41;;;10.84;100.00
18850;BME280;4989;48.772;9.154;2022-11-18T13:22:17;96812.16;;;11.12;100.00
18850;BME280;4989;48.772;9.154;2022-11-18T13:32:47;96825.56;;;10.61;100.00
18850;BME280;4989;48.772;9.154;2022-11-18T13:37:59;96812.28;;;10.63;100.00
18850;BME280;4989;48.772;9.154;2022-11-18T13:43:01;96811.38;;;10.66;100.00
18850;BME280;4989;48.772;9.154;2022-11-18T13:48:12;96821.31;;;10.41;100.00
18850;BME280;4989;48.772;9.154;2022-11-18T14:08:49;96815.03;;;9.91;100.00
18850;BME280;4989;48.772;9.154;2022-11-18T14:13:52;96834.03;;;9.91;100.00
18850;BME280;4989;48.772;9.154;2022-11-18T14:18:55;96826.69;;;9.70;100.00
18850;BME280;4989;48.772;9.154;2022-11-18T14:24:03;96841.41;;;9.59;100.00
18850;BME280;4989;48.772;9.154;2022-11-18T14:29:18;96848.03;;;9.58;100.00
18850;BME280;4989;48.772;9.154;2022-11-18T14:34:26;96850.41;;;9.78;100.00
18850;BME280;4989;48.772;9.154;2022-11-18T14:39:30;96853.13;;;10.09;100.00
18850;BME280;4989;48.772;9.154;2022-11-18T14:44:33;96855.47;;;9.98;100.00
18850;BME280;4989;48.772;9.154;2022-11-18T14:49:36;96863.28;;;9.87;100.00
18850;BME280;4989;48.772;9.154;2022-11-18T14:54:38;96851.69;;;9.64;100.00
18850;BME280;4989;48.772;9.154;2022-11-18T14:59:42;96858.53;;;9.47;100.00
18850;BME280;4989;48.772;9.154;2022-11-18T15:04:47;96852.97;;;9.51;100.00
18850;BME280;4989;48.772;9.154;2022-11-18T15:09:51;96866.19;;;9.71;100.00
18850;BME280;4989;48.772;9.154;2022-11-18T15:14:54;96861.03;;;9.42;100.00
18850;BME280;4989;48.772;9.154;2022-11-18T15:19:56;96872.78;;;9.26;100.00
18850;BME280;4989;48.772;9.154;2022-11-18T15:25:00;96882.13;;;9.25;100.00
18850;BME280;4989;48.772;9.154;2022-11-18T15:30:03;96888.88;;;9.20;100.00
18850;BME280;4989;48.772;9.154;2022-11-18T15:35:06;96902.53;;;9.16;100.00
18850;BME280;4989;48.772;9.154;2022-11-18T15:40:11;96898.31;;;9.15;100.00
18850;BME280;4989;48.772;9.154;2022-11-18T15:45:16;96900.63;;;9.17;100.00
18850;BME280;4989;48.772;9.154;2022-11-18T15:50:18;96902.63;;;9.26;100.00
18850;BME280;4989;48.772;9.154;2022-11-18T15:55:21;96909.16;;;9.15;100.00
18850;BME280;4989;48.772;9.154;2022-11-18T16:00:24;96906.13;;;9.13;100.00
18850;BME280;4989;48.772;9.154;2022-11-18T16:05:26;96906.59;;;9.12;100.00
18850;BME280;4989;48.772;9.154;2022-11-18T16:10:28;96911.78;;;9.06;100.00
18850;BME280;4989;48.772;9.154;2022-11-18T16:16:30;96916.13;;;9.04;100.00
18850;BME280;4989;48.772;9.154;2022-11-18T16:21:35;96915.19;;;8.98;100.00
18850;BME280;4989;48.772;9.154;2022-11-18T16:26:38;96918.63;;;8.98;100.00
18850;BME280;4989;48.772;9.154;2022-11-18T16:31:45;96924.38;;;9.00;100.00
18850;BME280;4989;48.772;9.154;2022-11-18T16:36:56;96917.56;;;8.95;100.00
18850;BME280;4989;48.772;9.154;2022-11-18T16:42:02;96920.59;;;8.98;100.00
18850;BME280;4989;48.772;9.154;2022-11-18T16:47:11;96931.56;;;8.94;100.00
18850;BME280;4989;48.772;9.154;2022-11-18T16:52:16;96934.06;;;8.88;100.00
18850;BME280;4989;48.772;9.154;2022-11-18T16:57:19;96938.72;;;8.88;100.00
18850;BME280;4989;48.772;9.154;2022-11-18T17:02:21;96945.34;;;8.87;100.00
18850;BME280;4989;48.772;9.154;2022-11-18T17:07:24;96951.81;;;8.89;100.00
18850;BME280;4989;48.772;9.154;2022-11-18T17:12:27;96956.81;;;8.91;100.00
18850;BME280;4989;48.772;9.154;2022-11-18T17:17:29;96964.31;;;8.87;100.00
18850;BME280;4989;48.772;9.154;2022-11-18T17:22:32;96971.66;;;8.74;100.00
18850;BME280;4989;48.772;9.154;2022-11-18T17:27:34;96970.50;;;8.75;100.00
18850;BME280;4989;48.772;9.154;2022-11-18T17:32:37;96981.44;;;8.84;100.00
18850;BME280;4989;48.772;9.154;2022-11-18T17:37:39;96982.69;;;8.92;100.00
18850;BME280;4989;48.772;9.154;2022-11-18T17:42:42;96980.84;;;9.14;100.00
18850;BME280;4989;48.772;9.154;2022-11-18T17:47:44;96989.97;;;9.08;100.00
18850;BME280;4989;48.772;9.154;2022-11-18T17:52:49;96983.66;;;8.98;100.00
18850;BME280;4989;48.772;9.154;2022-11-18T17:57:54;96989.44;;;9.00;100.00
18850;BME280;4989;48.772;9.154;2022-11-18T18:02:59;96998.75;;;8.99;100.00
18850;BME280;4989;48.772;9.154;2022-11-18T18:08:01;97006.22;;;8.95;100.00
18850;BME280;4989;48.772;9.154;2022-11-18T18:13:05;96991.28;;;8.90;100.00
18850;BME280;4989;48.772;9.154;2022-11-18T18:18:27;97000.28;;;8.75;100.00
18850;BME280;4989;48.772;9.154;2022-11-18T18:23:30;97005.03;;;8.70;100.00
18850;BME280;4989;48.772;9.154;2022-11-18T18:28:34;97005.72;;;8.75;100.00
18850;BME280;4989;48.772;9.154;2022-11-18T18:33:37;97007.09;;;8.79;100.00
18850;BME280;4989;48.772;9.154;2022-11-18T18:38:42;97014.13;;;8.77;100.00
18850;BME280;4989;48.772;9.154;2022-11-18T18:43:45;97023.56;;;8.72;100.00
18850;BME280;4989;48.772;9.154;2022-11-18T18:48:48;97017.28;;;8.62;100.00
18850;BME280;4989;48.772;9.154;2022-11-18T18:53:51;97011.94;;;8.46;100.00
18850;BME280;4989;48.772;9.154;2022-11-18T18:58:57;97016.00;;;8.38;100.00
18850;BME280;4989;48.772;9.154;2022-11-18T19:04:01;97017.09;;;8.27;100.00
18850;BME280;4989;48.772;9.154;2022-11-18T19:09:06;97018.22;;;8.43;100.00
18850;BME280;4989;48.772;9.154;2022-11-18T19:14:12;97026.91;;;8.21;100.00
18850;BME280;4989;48.772;9.154;2022-11-18T19:19:18;97028.19;;;8.17;100.00
18850;BME280;4989;48.772;9.154;2022-11-18T19:24:41;97034.38;;;8.17;100.00
18850;BME280;4989;48.772;9.154;2022-11-18T19:29:51;97042.66;;;8.26;100.00
18850;BME280;4989;48.772;9.154;2022-11-18T19:34:54;97051.94;;;8.25;100.00
18850;BME280;4989;48.772;9.154;2022-11-18T19:39:58;97053.84;;;8.12;100.00
18850;BME280;4989;48.772;9.154;2022-11-18T19:45:10;97043.88;;;8.09;100.00
18850;BME280;4989;48.772;9.154;2022-11-18T19:50:13;97050.63;;;8.17;100.00
18850;BME280;4989;48.772;9.154;2022-11-18T19:55:19;97034.28;;;8.21;100.00
18850;BME280;4989;48.772;9.154;2022-11-18T20:00:21;97037.88;;;8.31;100.00
18850;BME280;4989;48.772;9.154;2022-11-18T20:05:23;97037.50;;;8.45;100.00
18850;BME280;4989;48.772;9.154;2022-11-18T20:10:49;97038.06;;;8.53;100.00
18850;BME280;4989;48.772;9.154;2022-11-18T20:15:52;97036.91;;;8.66;100.00
18850;BME280;4989;48.772;9.154;2022-11-18T20:20:54;97045.44;;;8.65;100.00
18850;BME280;4989;48.772;9.154;2022-11-18T20:26:10;97049.09;;;8.45;100.00
18850;BME280;4989;48.772;9.154;2022-11-18T20:31:16;97056.41;;;8.32;100.00
18850;BME280;4989;48.772;9.154;2022-11-18T20:36:21;97054.59;;;8.13;100.00
18850;BME280;4989;48.772;9.154;2022-11-18T20:41:24;97051.34;;;8.05;100.00
18850;BME280;4989;48.772;9.154;2022-11-18T20:46:27;97042.53;;;8.01;100.00
18850;BME280;4989;48.772;9.154;2022-11-18T20:51:30;97050.41;;;7.95;100.00
18850;BME280;4989;48.772;9.154;2022-11-18T20:56:32;97052.91;;;7.90;100.00
18850;BME280;4989;48.772;9.154;2022-11-18T21:01:35;97062.03;;;7.96;100.00
18850;BME280;4989;48.772;9.154;2022-11-18T21:06:37;97066.72;;;8.08;100.00
18850;BME280;4989;48.772;9.154;2022-11-18T21:11:40;97074.00;;;8.11;100.00
18850;BME280;4989;48.772;9.154;2022-11-18T21:16:44;97085.84;;;8.01;100.00
18850;BME280;4989;48.772;9.154;2022-11-18T21:21:47;97081.88;;;8.06;100.00
18850;BME280;4989;48.772;9.154;2022-11-18T21:26:56;97080.88;;;7.99;100.00
18850;BME280;4989;48.772;9.154;2022-11-18T21:31:59;97079.09;;;7.93;100.00
18850;BME280;4989;48.772;9.154;2022-11-18T21:37:02;97077.41;;;7.99;100.00
18850;BME280;4989;48.772;9.154;2022-11-18T21:42:06;97079.16;;;8.06;100.00
18850;BME280;4989;48.772;9.154;2022-11-18T21:47:09;97078.16;;;7.99;100.00
18850;BME280;4989;48.772;9.154;2022-11-18T21:52:12;97080.41;;;8.01;100.00
18850;BME280;4989;48.772;9.154;2022-11-18T21:57:15;97083.66;;;7.96;100.00
18850;BME280;4989;48.772;9.154;2022-11-18T22:02:17;97084.84;;;7.95;100.00
18850;BME280;4989;48.772;9.154;2022-11-18T22:07:24;97089.94;;;7.93;100.00
18850;BME280;4989;48.772;9.154;2022-11-18T22:12:29;97106.63;;;8.04;100.00
18850;BME280;4989;48.772;9.154;2022-11-18T22:17:33;97108.34;;;7.98;100.00
18850;BME280;4989;48.772;9.154;2022-11-18T22:22:36;97116.28;;;7.89;100.00
18850;BME280;4989;48.772;9.154;2022-11-18T22:27:38;97112.22;;;7.97;100.00
18850;BME280;4989;48.772;9.154;2022-11-18T22:32:41;97116.03;;;7.99;100.00
18850;BME280;4989;48.772;9.154;2022-11-18T22:37:45;97118.78;;;8.12;100.00
18850;BME280;4989;48.772;9.154;2022-11-18T22:42:48;97120.03;;;8.24;100.00
18850;BME280;4989;48.772;9.154;2022-11-18T22:47:51;97121.28;;;8.36;100.00
18850;BME280;4989;48.772;9.154;2022-11-18T22:52:57;97114.19;;;8.42;100.00
18850;BME280;4989;48.772;9.154;2022-11-18T22:58:01;97118.22;;;8.34;100.00
18850;BME280;4989;48.772;9.154;2022-11-18T23:03:04;97123.66;;;8.34;100.00
18850;BME280;4989;48.772;9.154;2022-11-18T23:08:06;97132.09;;;8.65;100.00
18850;BME280;4989;48.772;9.154;2022-11-18T23:13:09;97125.63;;;8.62;100.00
18850;BME280;4989;48.772;9.154;2022-11-18T23:18:31;97126.53;;;8.43;100.00
18850;BME280;4989;48.772;9.154;2022-11-18T23:23:33;97115.97;;;8.32;100.00
18850;BME280;4989;48.772;9.154;2022-11-18T23:28:36;97131.09;;;8.46;100.00
18850;BME280;4989;48.772;9.154;2022-11-18T23:33:39;97131.09;;;8.46;100.00
18850;BME280;4989;48.772;9.154;2022-11-18T23:38:46;97126.31;;;8.50;100.00
18850;BME280;4989;48.772;9.154;2022-11-18T23:43:49;97129.47;;;8.48;100.00
18850;BME280;4989;48.772;9.154;2022-11-18T23:48:53;97114.53;;;8.27;100.00
18850;BME280;4989;48.772;9.154;2022-11-18T23:53:59;97111.03;;;7.98;100.00
18850;BME280;4989;48.772;9.154;2022-11-18T23:59:01;97113.56;;;8.05;100.00
